Time;durP1;ratioP1;P1;durP2;ratioP2;P2;SDS_P1;SDS_P2;PMS_P1;PMS_P2;Temp;Humidity;BMP_temperature;BMP_pressure;BME280_temperature;BME280_humidity;BME280_pressure;Samples;Min_cycle;Max_cycle;Signal;HPM_P1;HPM_P2
2023/08/06 00:00:37;;;;;;;9.70;8.70;;;;;;;22.87;100.00;99125.84;5140962;28;20301;-63
2023/08/06 00:03:03;;;;;;;9.20;8.38;;;;;;;22.81;100.00;99126.84;5140619;28;20051;-63
2023/08/06 00:05:29;;;;;;;10.48;8.88;;;;;;;22.70;100.00;99114.00;5140950;28;20074;-64
2023/08/06 00:07:55;;;;;;;17.20;8.90;;;;;;;22.62;100.00;99120.25;5140276;27;20185;-62
2023/08/06 00:10:21;;;;;;;10.70;9.50;;;;;;;22.71;100.00;99109.97;5140824;28;20145;-62
2023/08/06 00:12:48;;;;;;;12.38;9.55;;;;;;;22.76;100.00;99119.81;5140339;28;20146;-59
2023/08/06 00:15:15;;;;;;;12.18;9.65;;;;;;;22.72;100.00;99110.75;5140637;28;20085;-63
2023/08/06 00:17:40;;;;;;;10.82;9.43;;;;;;;22.75;100.00;99113.41;5140569;28;20253;-61
2023/08/06 00:20:08;;;;;;;12.52;9.38;;;;;;;22.73;100.00;99112.34;5140405;28;20055;-62
2023/08/06 00:22:35;;;;;;;12.63;9.65;;;;;;;22.61;100.00;99127.88;5140465;28;20054;-65
2023/08/06 00:25:01;;;;;;;21.52;9.30;;;;;;;22.72;100.00;99116.34;5140149;28;20452;-62
2023/08/06 00:27:27;;;;;;;14.07;9.48;;;;;;;22.54;100.00;99119.72;5140349;28;20153;-60
2023/08/06 00:29:53;;;;;;;13.35;9.32;;;;;;;22.51;100.00;99123.41;5140022;28;20096;-60
2023/08/06 00:32:20;;;;;;;15.90;9.43;;;;;;;22.45;100.00;99111.22;5140395;28;20054;-60
2023/08/06 00:34:46;;;;;;;10.98;8.80;;;;;;;22.51;100.00;99106.63;5139963;28;20043;-64
2023/08/06 00:37:12;;;;;;;12.73;9.45;;;;;;;22.31;100.00;99113.22;5140344;27;20357;-64
2023/08/06 00:39:37;;;;;;;12.15;8.93;;;;;;;22.20;100.00;99106.41;5139880;28;20043;-61
2023/08/06 00:42:04;;;;;;;10.43;9.20;;;;;;;22.28;100.00;99104.94;5139833;28;20079;-61
2023/08/06 00:44:30;;;;;;;10.55;8.90;;;;;;;22.31;100.00;99099.25;5139921;28;20143;-64
2023/08/06 00:46:56;;;;;;;13.48;10.30;;;;;;;22.31;100.00;99090.88;5139792;28;20066;-62
2023/08/06 00:49:23;;;;;;;12.55;9.80;;;;;;;22.21;100.00;99080.03;5140083;28;20061;-59
2023/08/06 00:51:50;;;;;;;11.38;9.32;;;;;;;22.09;100.00;99085.16;5139820;28;20051;-61
2023/08/06 00:54:16;;;;;;;11.45;9.68;;;;;;;22.18;100.00;99078.91;5139907;28;20047;-64
2023/08/06 00:56:42;;;;;;;14.45;10.55;;;;;;;22.15;100.00;99079.00;5139753;28;20194;-60
2023/08/06 00:59:10;;;;;;;15.23;9.98;;;;;;;22.15;100.00;99090.97;5140067;28;20075;-60
2023/08/06 01:01:36;;;;;;;16.40;10.02;;;;;;;22.30;100.00;99077.38;5139662;28;20137;-64
2023/08/06 01:04:02;;;;;;;11.57;10.00;;;;;;;22.26;100.00;99082.28;5140029;28;20069;-64
2023/08/06 01:06:39;;;;;;;13.05;9.13;;;;;;;22.08;100.00;99069.59;5138615;27;20332;-63
2023/08/06 01:09:16;;;;;;;14.20;9.40;;;;;;;22.05;100.00;99066.94;5139301;27;20454;-63
2023/08/06 01:11:53;;;;;;;11.02;9.93;;;;;;;22.06;100.00;99071.31;5139727;28;20047;-62
2023/08/06 01:14:31;;;;;;;10.75;9.65;;;;;;;22.13;100.00;99061.94;5139299;28;20138;-61
2023/08/06 01:17:00;;;;;;;11.20;9.50;;;;;;;22.04;100.00;99060.56;5139631;28;20138;-64
2023/08/06 01:19:26;;;;;;;14.02;10.05;;;;;;;22.03;100.00;99063.81;5139280;28;20047;-61
2023/08/06 01:21:52;;;;;;;13.38;10.00;;;;;;;21.72;100.00;99055.94;5139645;28;20155;-60
2023/08/06 01:24:18;;;;;;;11.55;9.85;;;;;;;21.82;100.00;99037.31;5139279;28;20047;-61
2023/08/06 01:26:51;;;;;;;13.38;9.68;;;;;;;21.95;100.00;99037.34;5139659;28;20062;-60
2023/08/06 01:29:23;;;;;;;16.30;10.18;;;;;;;21.97;100.00;99048.84;5139379;28;20063;-64
2023/08/06 01:31:51;;;;;;;13.93;9.40;;;;;;;21.73;100.00;99037.22;5139038;28;20082;-63
2023/08/06 01:34:21;;;;;;;10.88;9.23;;;;;;;21.76;100.00;99012.00;5139187;28;20483;-63
2023/08/06 01:36:47;;;;;;;18.38;9.30;;;;;;;21.82;100.00;99024.13;5139187;28;20047;-64
2023/08/06 01:39:14;;;;;;;13.35;10.73;;;;;;;21.89;100.00;99031.50;5139277;27;20354;-63
2023/08/06 01:41:40;;;;;;;12.13;10.05;;;;;;;21.75;100.00;99027.16;5138900;28;20047;-63
2023/08/06 01:44:08;;;;;;;17.13;9.35;;;;;;;21.77;100.00;99012.78;5139190;28;20047;-64
2023/08/06 01:46:34;;;;;;;14.40;12.88;;;;;;;21.71;100.00;99036.88;5138791;28;20047;-61
2023/08/06 01:49:03;;;;;;;13.20;10.30;;;;;;;21.89;100.00;99036.31;5138762;28;20150;-60
2023/08/06 01:51:29;;;;;;;14.38;9.18;;;;;;;21.63;100.00;99011.19;5138807;28;20137;-62
2023/08/06 01:53:54;;;;;;;13.48;12.15;;;;;;;21.65;100.00;99016.31;5139199;28;20054;-63
2023/08/06 01:56:21;;;;;;;10.68;8.95;;;;;;;21.64;100.00;99015.53;5138941;28;20159;-64
2023/08/06 01:58:47;;;;;;;13.27;10.73;;;;;;;21.67;100.00;99025.03;5138870;28;20047;-65
2023/08/06 02:01:13;;;;;;;10.93;9.35;;;;;;;21.59;100.00;99021.66;5138736;28;20404;-65
2023/08/06 02:03:39;;;;;;;13.35;9.95;;;;;;;21.90;100.00;99016.34;5138718;28;20062;-64
2023/08/06 02:06:05;;;;;;;12.07;9.73;;;;;;;21.73;100.00;99035.19;5138702;28;20200;-61
2023/08/06 02:08:30;;;;;;;11.77;10.15;;;;;;;21.71;100.00;99031.28;5138375;27;20051;-60
2023/08/06 02:10:57;;;;;;;11.70;10.50;;;;;;;21.70;100.00;99015.78;5138899;28;20047;-61
2023/08/06 02:13:24;;;;;;;12.45;9.82;;;;;;;21.57;100.00;99001.81;5138536;28;20051;-60
2023/08/06 02:15:50;;;;;;;15.82;10.52;;;;;;;21.38;100.00;98987.56;5138882;28;20047;-60
2023/08/06 02:18:16;;;;;;;14.82;10.25;;;;;;;21.32;100.00;98952.28;5138240;27;20065;-60
2023/08/06 02:20:42;;;;;;;15.02;10.07;;;;;;;21.47;100.00;98949.91;5138850;28;20078;-64
2023/08/06 02:23:09;;;;;;;12.65;10.77;;;;;;;21.37;100.00;98949.00;5138214;28;20051;-59
2023/08/06 02:25:35;;;;;;;12.30;10.23;;;;;;;21.31;100.00;98939.59;5138490;28;20047;-62
2023/08/06 02:28:00;;;;;;;15.45;11.05;;;;;;;21.20;100.00;98916.81;5138480;28;20057;-59
2023/08/06 02:30:27;;;;;;;15.40;13.52;;;;;;;21.26;100.00;98917.81;5138368;28;20070;-60
2023/08/06 02:32:53;;;;;;;12.25;10.23;;;;;;;21.31;100.00;98912.47;5138449;28;20051;-61
2023/08/06 02:35:19;;;;;;;20.77;10.38;;;;;;;21.38;100.00;98917.09;5137511;28;20051;-62
2023/08/06 02:37:45;;;;;;;16.60;12.02;;;;;;;21.53;100.00;98932.19;5138195;27;20062;-63
2023/08/06 02:40:13;;;;;;;15.07;13.65;;;;;;;21.17;100.00;98920.50;5138132;28;20231;-63
2023/08/06 02:42:39;;;;;;;13.95;10.18;;;;;;;21.08;100.00;98910.75;5138309;28;20043;-62
2023/08/06 02:45:06;;;;;;;16.30;10.75;;;;;;;21.25;100.00;98899.53;5137969;28;20089;-63
2023/08/06 02:47:32;;;;;;;16.13;10.10;;;;;;;21.14;100.00;98897.84;5138304;28;20197;-63
2023/08/06 02:49:58;;;;;;;14.45;10.93;;;;;;;21.24;100.00;98893.19;5137865;28;20142;-64
2023/08/06 02:52:24;;;;;;;13.73;10.77;;;;;;;21.43;100.00;98902.59;5138199;28;20115;-62
2023/08/06 02:54:51;;;;;;;14.90;10.85;;;;;;;21.26;100.00;98913.03;5138074;28;20058;-61
2023/08/06 02:57:17;;;;;;;11.60;10.40;;;;;;;21.20;100.00;98912.03;5137678;28;20085;-61
2023/08/06 02:59:43;;;;;;;12.10;10.38;;;;;;;21.10;100.00;98905.53;5138018;28;20090;-60
2023/08/06 03:02:08;;;;;;;14.82;11.15;;;;;;;21.44;100.00;98908.97;5137603;28;20058;-59
2023/08/06 03:04:35;;;;;;;14.98;10.43;;;;;;;21.84;100.00;98949.16;5137242;28;20074;-61
2023/08/06 03:07:01;;;;;;;15.00;10.82;;;;;;;21.87;100.00;99003.28;5137715;27;20201;-61
2023/08/06 03:09:27;;;;;;;11.52;9.60;;;;;;;21.96;100.00;99024.94;5137954;28;20380;-60
2023/08/06 03:11:53;;;;;;;13.23;9.82;;;;;;;22.11;100.00;99048.41;5137570;28;20083;-60
2023/08/06 03:14:18;;;;;;;15.70;10.05;;;;;;;22.29;100.00;99047.88;5137896;28;20090;-60
2023/08/06 03:16:44;;;;;;;10.93;8.68;;;;;;;22.41;100.00;99088.97;5137477;28;20055;-60
2023/08/06 03:19:10;;;;;;;10.48;8.60;;;;;;;22.83;100.00;99082.47;5137930;28;20058;-63
2023/08/06 03:21:37;;;;;;;10.55;8.90;;;;;;;22.95;100.00;99068.47;5137324;28;20369;-63
2023/08/06 03:24:03;;;;;;;14.05;8.93;;;;;;;23.21;100.00;99027.22;5137601;28;20057;-62
2023/08/06 03:26:29;;;;;;;9.93;8.68;;;;;;;23.21;100.00;98992.91;5137384;28;20361;-64
2023/08/06 03:28:55;;;;;;;12.35;8.35;;;;;;;23.11;100.00;99005.25;5136881;27;20106;-65
2023/08/06 03:31:20;;;;;;;16.13;8.80;;;;;;;23.79;100.00;98927.19;5137527;28;20043;-63
2023/08/06 03:33:46;;;;;;;18.20;8.45;;;;;;;23.69;100.00;98817.22;5137195;28;20047;-62
2023/08/06 03:36:12;;;;;;;11.77;8.15;;;;;;;23.91;100.00;98803.13;5137498;28;20043;-61
2023/08/06 03:38:39;;;;;;;9.85;7.50;;;;;;;23.92;100.00;98757.84;5137212;27;20168;-60
2023/08/06 03:41:05;;;;;;;8.95;7.82;;;;;;;23.95;100.00;98675.72;5137533;28;20139;-62
2023/08/06 03:43:30;;;;;;;8.65;7.20;;;;;;;24.07;100.00;98631.25;5137183;28;20124;-61
2023/08/06 03:45:56;;;;;;;10.68;7.88;;;;;;;24.69;100.00;98540.28;5137576;28;20079;-61
2023/08/06 03:48:22;;;;;;;8.98;7.75;;;;;;;24.58;100.00;98428.72;5136991;28;20055;-60
2023/08/06 03:50:48;;;;;;;7.82;7.03;;;;;;;24.06;100.00;98515.69;5137416;28;20096;-61
2023/08/06 03:53:17;;;;;;;11.90;7.45;;;;;;;24.52;100.00;98375.38;5137209;28;20051;-63
2023/08/06 03:55:46;;;;;;;11.27;7.65;;;;;;;24.38;100.00;98446.13;5137190;28;20051;-61
2023/08/06 03:58:12;;;;;;;11.07;7.63;;;;;;;25.12;100.00;98269.69;5136845;28;20549;-61
2023/08/06 04:00:38;;;;;;;12.45;7.93;;;;;;;24.28;100.00;98386.56;5137046;28;20141;-61
2023/08/06 04:03:06;;;;;;;7.72;7.03;;;;;;;25.03;100.00;98252.97;5137237;28;20187;-63
2023/08/06 04:05:32;;;;;;;10.85;7.30;;;;;;;25.12;100.00;98006.09;5136986;28;20073;-64
2023/08/06 04:07:59;;;;;;;7.72;7.00;;;;;;;25.40;100.00;97904.66;5137097;27;20385;-64
2023/08/06 04:10:25;;;;;;;13.88;8.75;;;;;;;25.56;100.00;97904.03;5136825;28;20378;-61
2023/08/06 04:12:52;;;;;;;9.68;8.57;;;;;;;25.51;100.00;97857.81;5136543;28;20047;-60
2023/08/06 04:15:18;;;;;;;8.40;7.00;;;;;;;25.67;100.00;97811.50;5136598;28;20119;-63
2023/08/06 04:17:44;;;;;;;7.80;6.07;;;;;;;25.47;100.00;97843.25;5137160;28;20133;-60
2023/08/06 04:20:10;;;;;;;8.60;6.38;;;;;;;25.97;100.00;97752.25;5136577;28;20334;-61
2023/08/06 04:22:37;;;;;;;7.93;6.90;;;;;;;26.25;100.00;97629.50;5136782;28;20142;-64
2023/08/06 04:25:03;;;;;;;8.32;6.40;;;;;;;25.88;100.00;97643.72;5136879;28;20298;-63
2023/08/06 04:27:29;;;;;;;9.07;8.20;;;;;;;26.52;100.00;97633.66;5136674;28;20336;-61
2023/08/06 04:29:56;;;;;;;12.18;6.82;;;;;;;26.62;100.00;97627.75;5136832;28;20078;-61
2023/08/06 04:32:22;;;;;;;7.00;6.30;;;;;;;26.14;100.00;97607.03;5136596;28;20519;-60
2023/08/06 04:34:49;;;;;;;7.25;6.20;;;;;;;26.82;100.00;97560.00;5136509;28;20134;-60
2023/08/06 04:37:15;;;;;;;11.45;7.10;;;;;;;26.97;100.00;97546.44;5136401;27;20138;-61
2023/08/06 04:39:41;;;;;;;9.77;7.72;;;;;;;26.93;100.00;97554.38;5136831;28;20142;-63
2023/08/06 04:42:07;;;;;;;9.15;8.13;;;;;;;26.87;100.00;97550.81;5138014;27;20377;-64
2023/08/06 04:44:33;;;;;;;9.48;7.70;;;;;;;26.83;100.00;97543.94;5140342;28;20086;-64
2023/08/06 04:46:59;;;;;;;9.68;8.02;;;;;;;27.17;100.00;97545.38;5139895;28;20051;-65
2023/08/06 04:49:25;;;;;;;10.40;6.07;;;;;;;27.30;100.00;97538.44;5140169;28;20380;-64
2023/08/06 04:51:51;;;;;;;16.33;7.25;;;;;;;26.82;100.00;97557.22;5139729;28;20491;-64
2023/08/06 04:54:17;;;;;;;9.25;8.35;;;;;;;27.14;100.00;97554.84;5139885;28;20145;-64
2023/08/06 04:56:43;;;;;;;8.98;8.07;;;;;;;27.16;100.00;97551.53;5139917;28;20134;-62
2023/08/06 04:59:09;;;;;;;8.32;7.45;;;;;;;28.19;100.00;97573.78;5139805;28;20061;-61
2023/08/06 05:01:35;;;;;;;8.32;7.63;;;;;;;27.92;100.00;97567.03;5139870;28;20387;-60
2023/08/06 05:04:01;;;;;;;8.32;7.60;;;;;;;27.84;100.00;97578.09;5139725;28;20247;-61
2023/08/06 05:06:27;;;;;;;8.20;7.38;;;;;;;28.75;100.00;97614.84;5139891;28;20180;-60
2023/08/06 05:08:53;;;;;;;8.60;7.10;;;;;;;28.52;100.00;97628.34;5139304;27;20087;-61
2023/08/06 05:11:19;;;;;;;9.02;7.95;;;;;;;28.14;100.00;97699.28;5139848;28;20054;-62
2023/08/06 05:13:45;;;;;;;9.10;7.38;;;;;;;29.16;100.00;97744.53;5139334;28;20047;-63
2023/08/06 05:16:11;;;;;;;8.48;7.70;;;;;;;28.56;100.00;97631.69;5139126;28;20061;-64
2023/08/06 05:18:37;;;;;;;11.55;8.13;;;;;;;28.29;100.00;97670.00;5139212;28;20139;-65
2023/08/06 05:21:04;;;;;;;8.15;7.40;;;;;;;28.98;100.00;97706.41;5139541;28;20047;-61
2023/08/06 05:23:30;;;;;;;13.90;8.68;;;;;;;28.81;100.00;97734.00;5139072;28;20328;-60
2023/08/06 05:25:55;;;;;;;9.43;8.23;;;;;;;28.36;100.00;97638.47;5139410;28;20141;-61
2023/08/06 05:28:21;;;;;;;13.00;8.43;;;;;;;27.83;100.00;97629.31;5139420;28;20161;-60
2023/08/06 05:30:47;;;;;;;8.80;7.90;;;;;;;26.89;100.00;97522.19;5139265;28;20061;-63
2023/08/06 05:33:13;;;;;;;8.95;8.10;;;;;;;26.21;100.00;97530.69;5139374;28;20057;-64
2023/08/06 05:35:41;;;;;;;9.38;8.40;;;;;;;25.97;100.00;97572.53;5139109;28;20100;-61
2023/08/06 05:38:10;;;;;;;9.02;8.13;;;;;;;26.17;100.00;97583.53;5139257;27;20112;-60
2023/08/06 05:40:36;;;;;;;11.43;8.77;;;;;;;27.23;100.00;97491.16;5139039;28;20047;-63
2023/08/06 05:43:02;;;;;;;9.80;8.80;;;;;;;27.04;100.00;97486.09;5139273;28;20142;-63
2023/08/06 05:45:28;;;;;;;11.05;9.18;;;;;;;28.14;100.00;97507.72;5138840;28;20058;-64
2023/08/06 05:47:57;;;;;;;8.20;7.40;;;;;;;27.80;100.00;97512.84;5139146;28;20130;-64
2023/08/06 05:50:23;;;;;;;11.15;9.18;;;;;;;27.77;100.00;97532.84;5138627;28;20050;-64
2023/08/06 05:52:49;;;;;;;12.35;8.65;;;;;;;28.87;100.00;97573.22;5138216;27;20055;-62
2023/08/06 05:55:16;;;;;;;9.85;8.45;;;;;;;28.57;100.00;97588.84;5138943;28;20112;-62
2023/08/06 05:57:42;;;;;;;11.88;8.40;;;;;;;28.99;100.00;97585.88;5138569;28;20137;-62
2023/08/06 06:00:08;;;;;;;10.35;8.77;;;;;;;29.08;100.00;97678.66;5138899;28;20072;-62
2023/08/06 06:02:35;;;;;;;11.63;7.68;;;;;;;29.35;100.00;97681.75;5138617;28;20066;-65
2023/08/06 06:05:01;;;;;;;13.65;8.95;;;;;;;29.38;100.00;97669.38;5138984;28;20074;-61
2023/08/06 06:07:27;;;;;;;9.05;8.13;;;;;;;29.80;100.00;97735.69;5138494;27;20391;-60
2023/08/06 06:09:53;;;;;;;8.93;8.05;;;;;;;29.52;100.00;97651.25;5138723;28;20051;-64
2023/08/06 06:12:19;;;;;;;8.65;7.82;;;;;;;30.31;100.00;97792.38;5138339;28;20043;-65
2023/08/06 06:14:45;;;;;;;8.68;7.75;;;;;;;30.10;100.00;97782.88;5138753;28;20046;-64
2023/08/06 06:17:14;;;;;;;8.73;7.88;;;;;;;30.53;100.00;97799.06;5138327;28;20137;-64
2023/08/06 06:19:40;;;;;;;9.00;8.13;;;;;;;30.18;100.00;97773.28;5138435;28;20145;-60
2023/08/06 06:22:06;;;;;;;9.43;7.93;;;;;;;31.23;100.00;97884.00;5138607;28;20097;-64
2023/08/06 06:24:32;;;;;;;15.05;8.10;;;;;;;30.83;100.00;97870.41;5138390;28;20055;-64
2023/08/06 06:26:58;;;;;;;9.52;7.28;;;;;;;31.18;100.00;97896.94;5138428;28;20078;-65
2023/08/06 06:29:24;;;;;;;10.68;8.30;;;;;;;30.01;100.00;97748.03;5138156;28;20051;-64
2023/08/06 06:31:50;;;;;;;11.93;8.32;;;;;;;31.24;100.00;97874.97;5138320;28;20500;-66
2023/08/06 06:34:16;;;;;;;8.73;7.80;;;;;;;30.95;100.00;97879.50;5137997;28;20055;-65
2023/08/06 06:36:42;;;;;;;10.75;8.15;;;;;;;30.53;100.00;97802.66;5138389;28;20097;-64
2023/08/06 06:39:08;;;;;;;12.50;7.88;;;;;;;31.69;100.00;97853.66;5137898;27;20424;-62
2023/08/06 06:41:34;;;;;;;8.90;7.78;;;;;;;31.76;100.00;97935.22;5138332;28;20051;-61
2023/08/06 06:44:00;;;;;;;12.20;7.75;;;;;;;32.01;100.00;97959.28;5137877;28;20097;-61
2023/08/06 06:46:26;;;;;;;13.23;8.13;;;;;;;33.17;100.00;98013.63;5138227;28;20054;-63
2023/08/06 06:48:52;;;;;;;11.60;8.02;;;;;;;32.95;100.00;98050.94;5137958;28;20171;-61
2023/08/06 06:51:18;;;;;;;15.90;8.50;;;;;;;32.47;100.00;97973.47;5137824;28;20428;-63
2023/08/06 06:53:47;;;;;;;8.45;7.55;;;;;;;30.93;100.00;97868.72;5137779;28;20082;-63
2023/08/06 06:56:16;;;;;;;9.70;8.70;;;;;;;31.90;100.00;97953.81;5137753;28;20058;-63
2023/08/06 06:58:42;;;;;;;11.77;8.00;;;;;;;31.71;100.00;97924.72;5137890;28;20063;-65
2023/08/06 07:01:09;;;;;;;8.70;7.60;;;;;;;33.29;100.00;98019.84;5137779;28;20505;-64
2023/08/06 07:03:36;;;;;;;11.75;7.97;;;;;;;32.99;100.00;98006.78;5137541;27;20313;-61
2023/08/06 07:06:03;;;;;;;11.38;7.15;;;;;;;31.60;100.00;98000.09;5137271;28;20134;-60
2023/08/06 07:08:29;;;;;;;9.30;8.35;;;;;;;31.71;100.00;97924.72;5137730;27;20413;-65
2023/08/06 07:11:01;;;;;;;10.45;8.02;;;;;;;32.25;100.00;97958.34;5137459;28;20074;-60
2023/08/06 07:13:27;;;;;;;8.05;7.35;;;;;;;33.04;100.00;98003.03;5137771;28;20054;-63
2023/08/06 07:15:54;;;;;;;9.82;8.20;;;;;;;31.97;100.00;97938.25;5137619;28;20138;-65
2023/08/06 07:18:20;;;;;;;9.90;8.30;;;;;;;31.76;100.00;97884.97;5137589;28;20123;-61
2023/08/06 07:20:49;;;;;;;11.45;7.88;;;;;;;31.67;100.00;97902.38;5137416;28;20404;-61
2023/08/06 07:23:15;;;;;;;10.30;8.63;;;;;;;30.33;100.00;97789.81;5137439;28;20047;-62
2023/08/06 07:25:41;;;;;;;14.00;9.57;;;;;;;31.40;100.00;97825.84;5137415;28;20058;-61
2023/08/06 07:28:06;;;;;;;9.18;8.20;;;;;;;32.54;100.00;97913.22;5137396;28;20137;-61
2023/08/06 07:30:32;;;;;;;9.70;8.68;;;;;;;32.13;100.00;97933.59;5137647;28;20078;-60
2023/08/06 07:32:58;;;;;;;9.25;8.32;;;;;;;32.39;100.00;97944.97;5137070;28;20385;-61
2023/08/06 07:35:24;;;;;;;12.25;8.48;;;;;;;32.47;100.00;97984.81;5137581;28;20047;-61
2023/08/06 07:37:51;;;;;;;9.88;8.02;;;;;;;31.76;100.00;97890.66;5137116;27;20146;-64
2023/08/06 07:40:17;;;;;;;9.00;8.20;;;;;;;31.97;100.00;97949.56;5137616;28;20051;-61
2023/08/06 07:42:42;;;;;;;9.40;8.57;;;;;;;31.80;100.00;97913.75;5136969;28;20332;-64
2023/08/06 07:45:12;;;;;;;8.82;8.02;;;;;;;33.06;100.00;98008.19;5137085;28;20088;-64
2023/08/06 07:47:38;;;;;;;12.63;8.57;;;;;;;32.84;100.00;97983.06;5137187;28;20082;-61
2023/08/06 07:50:04;;;;;;;9.90;8.40;;;;;;;31.98;100.00;97923.50;5137161;28;20469;-61
2023/08/06 07:52:30;;;;;;;11.60;8.52;;;;;;;32.04;100.00;97946.84;5137383;28;20087;-60
2023/08/06 07:54:57;;;;;;;9.90;7.50;;;;;;;32.24;100.00;97890.84;5136904;28;20452;-60
2023/08/06 07:57:23;;;;;;;8.73;7.85;;;;;;;32.52;100.00;97989.59;5137041;28;20147;-62
2023/08/06 07:59:49;;;;;;;8.60;7.72;;;;;;;33.15;100.00;97981.41;5136942;28;20082;-60
2023/08/06 08:02:15;;;;;;;7.93;7.18;;;;;;;32.83;100.00;97936.88;5137243;28;20060;-63
2023/08/06 08:04:41;;;;;;;9.52;8.15;;;;;;;31.62;100.00;97861.53;5136735;28;20051;-65
2023/08/06 08:07:07;;;;;;;11.45;8.50;;;;;;;32.45;100.00;97927.84;5137223;27;20094;-65
2023/08/06 08:09:34;;;;;;;8.82;7.88;;;;;;;32.61;100.00;97945.84;5136684;28;20138;-61
2023/08/06 08:12:04;;;;;;;8.48;7.65;;;;;;;33.06;100.00;97991.16;5137087;28;20511;-61
2023/08/06 08:14:35;;;;;;;9.32;8.35;;;;;;;32.69;100.00;97986.44;5136776;28;20111;-65
2023/08/06 08:17:01;;;;;;;9.35;7.93;;;;;;;32.76;100.00;97934.72;5139954;27;20058;-62
2023/08/06 08:19:28;;;;;;;9.32;7.75;;;;;;;33.12;100.00;97966.22;5140421;28;20055;-61
2023/08/06 08:21:54;;;;;;;8.73;7.80;;;;;;;33.72;100.00;97976.00;5140290;28;20079;-61
2023/08/06 08:24:20;;;;;;;13.77;8.13;;;;;;;33.62;100.00;98046.78;5140434;28;20062;-65
2023/08/06 08:26:46;;;;;;;11.77;7.88;;;;;;;33.93;100.00;97998.78;5140273;28;20083;-62
2023/08/06 08:29:13;;;;;;;13.02;7.78;;;;;;;32.87;100.00;97981.97;5140460;28;20105;-61
2023/08/06 08:31:39;;;;;;;11.85;8.13;;;;;;;32.89;100.00;97948.09;5140072;28;20142;-64
2023/08/06 08:34:05;;;;;;;9.55;8.57;;;;;;;33.19;100.00;97957.06;5140447;28;20051;-60
2023/08/06 08:36:31;;;;;;;11.43;8.20;;;;;;;33.36;100.00;97955.91;5140011;28;20138;-64
2023/08/06 08:38:57;;;;;;;12.77;8.35;;;;;;;32.80;100.00;97955.00;5140325;27;20321;-65
2023/08/06 08:41:23;;;;;;;8.45;7.63;;;;;;;33.16;100.00;97985.78;5140113;28;20158;-64
2023/08/06 08:43:50;;;;;;;10.48;8.02;;;;;;;32.84;100.00;98003.69;5139960;28;20382;-64
2023/08/06 08:46:21;;;;;;;10.20;7.88;;;;;;;33.21;100.00;97951.56;5139762;28;20058;-65
2023/08/06 08:48:47;;;;;;;9.27;8.40;;;;;;;33.41;100.00;98003.31;5139655;28;20101;-64
2023/08/06 08:51:13;;;;;;;9.63;8.43;;;;;;;32.94;100.00;97978.47;5140099;28;20047;-60
2023/08/06 08:53:39;;;;;;;10.48;7.88;;;;;;;33.19;100.00;97959.09;5139868;28;20278;-64
2023/08/06 08:56:05;;;;;;;9.30;8.30;;;;;;;33.31;100.00;97994.47;5139600;28;20047;-61
2023/08/06 08:58:32;;;;;;;13.27;9.02;;;;;;;33.03;100.00;97969.53;5139795;28;20391;-61
2023/08/06 09:00:59;;;;;;;9.27;8.35;;;;;;;34.15;100.00;98003.16;5140048;28;20316;-63
2023/08/06 09:03:26;;;;;;;8.77;7.68;;;;;;;33.55;100.00;97956.50;5139532;28;20051;-61
2023/08/06 09:05:54;;;;;;;11.73;8.20;;;;;;;32.45;100.00;97942.78;5139949;28;20400;-61
2023/08/06 09:08:28;;;;;;;9.35;7.93;;;;;;;32.69;100.00;97943.88;5139579;27;20051;-61
2023/08/06 09:10:54;;;;;;;9.23;8.00;;;;;;;32.69;100.00;97924.78;5139381;28;20087;-60
2023/08/06 09:13:21;;;;;;;8.80;7.95;;;;;;;33.60;100.00;97966.25;5139501;28;20043;-62
2023/08/06 09:15:47;;;;;;;8.98;7.68;;;;;;;34.15;100.00;98017.38;5139465;28;20142;-62
2023/08/06 09:18:13;;;;;;;12.05;8.00;;;;;;;33.03;100.00;98001.53;5139535;28;20062;-60
2023/08/06 09:20:40;;;;;;;9.05;8.00;;;;;;;33.32;100.00;97993.16;5139265;28;20057;-61
2023/08/06 09:23:08;;;;;;;11.93;8.02;;;;;;;33.36;100.00;97961.59;5139569;28;20200;-62
2023/08/06 09:25:35;;;;;;;11.18;7.60;;;;;;;32.60;100.00;97952.84;5139174;28;20047;-64
2023/08/06 09:28:04;;;;;;;13.20;7.63;;;;;;;32.45;100.00;97903.06;5138760;27;20316;-60
2023/08/06 09:30:31;;;;;;;11.55;7.65;;;;;;;33.04;100.00;97954.78;5139142;28;20047;-60
2023/08/06 09:32:58;;;;;;;11.50;8.60;;;;;;;32.81;100.00;97950.84;5139544;28;20138;-60
2023/08/06 09:35:24;;;;;;;12.13;7.90;;;;;;;32.72;100.00;97959.81;5139199;28;20047;-65
2023/08/06 09:37:50;;;;;;;8.73;7.82;;;;;;;32.06;100.00;97954.84;5138904;27;20191;-61
2023/08/06 09:40:27;;;;;;;12.02;8.25;;;;;;;33.12;100.00;97957.69;5138963;28;20043;-62
2023/08/06 09:42:53;;;;;;;11.52;8.32;;;;;;;32.95;100.00;97962.94;5138928;28;20047;-63
2023/08/06 09:45:21;;;;;;;10.48;8.52;;;;;;;32.58;100.00;97919.34;5139322;28;20176;-61
2023/08/06 09:47:47;;;;;;;9.23;8.27;;;;;;;32.55;100.00;97937.44;5138991;28;20142;-61
2023/08/06 09:50:16;;;;;;;9.80;8.80;;;;;;;32.30;100.00;97892.25;5139164;28;20058;-63
2023/08/06 09:52:43;;;;;;;13.73;8.50;;;;;;;32.67;100.00;97901.09;5138844;28;20062;-63
2023/08/06 09:55:12;;;;;;;9.73;8.57;;;;;;;32.47;100.00;97922.41;5139256;28;20323;-64
2023/08/06 09:57:38;;;;;;;13.80;8.30;;;;;;;32.30;100.00;97886.59;5138762;28;20110;-61
2023/08/06 10:00:08;;;;;;;12.30;8.57;;;;;;;32.53;100.00;97906.78;5138914;28;20093;-61
2023/08/06 10:02:34;;;;;;;12.02;8.52;;;;;;;32.72;100.00;97920.06;5138894;28;20047;-62
2023/08/06 10:05:00;;;;;;;15.88;8.48;;;;;;;33.09;100.00;97921.91;5138809;28;20057;-59
2023/08/06 10:07:27;;;;;;;10.07;8.10;;;;;;;32.52;100.00;97899.59;5138875;27;20079;-63
2023/08/06 10:09:53;;;;;;;9.48;8.43;;;;;;;32.88;100.00;97904.03;5138553;28;20051;-63
2023/08/06 10:12:20;;;;;;;11.88;8.48;;;;;;;32.22;100.00;97882.88;5138661;28;20404;-64
2023/08/06 10:14:49;;;;;;;11.88;7.88;;;;;;;32.15;100.00;97885.59;5138556;28;20047;-60
2023/08/06 10:17:17;;;;;;;10.07;8.55;;;;;;;32.37;100.00;97913.53;5138863;28;20317;-62
2023/08/06 10:19:44;;;;;;;9.18;8.27;;;;;;;32.26;100.00;97869.16;5138400;28;20059;-60
2023/08/06 10:22:13;;;;;;;9.57;8.38;;;;;;;32.52;100.00;97848.53;5138816;28;20051;-61
2023/08/06 10:24:47;;;;;;;10.05;8.27;;;;;;;32.98;100.00;97871.03;5138239;28;20374;-63
2023/08/06 10:27:21;;;;;;;12.98;8.05;;;;;;;33.75;100.00;97915.22;5138221;28;20485;-62
2023/08/06 10:29:46;;;;;;;9.07;8.18;;;;;;;32.55;100.00;97963.72;5138185;28;20066;-64
2023/08/06 10:32:13;;;;;;;9.38;8.48;;;;;;;32.04;100.00;97907.19;5138075;28;20050;-64
2023/08/06 10:34:58;;;;;;;12.30;8.02;;;;;;;32.57;100.00;97903.63;5138277;28;20142;-60
2023/08/06 10:37:24;;;;;;;11.98;7.93;;;;;;;32.59;100.00;97926.56;5137855;27;20134;-64
2023/08/06 10:39:51;;;;;;;11.52;7.45;;;;;;;32.96;100.00;97910.59;5137042;27;20092;-60
2023/08/06 10:42:22;;;;;;;15.30;7.95;;;;;;;32.76;100.00;97926.97;5138024;28;20097;-64
2023/08/06 10:45:14;;;;;;;8.85;7.88;;;;;;;33.12;100.00;97934.22;5138400;28;20412;-64
2023/08/06 10:47:40;;;;;;;10.45;7.60;;;;;;;33.19;100.00;97919.34;5138011;28;20051;-64
2023/08/06 10:50:07;;;;;;;13.05;8.00;;;;;;;32.95;100.00;97906.94;5137754;28;20050;-63
2023/08/06 10:52:33;;;;;;;10.15;7.95;;;;;;;33.06;100.00;97900.31;5138190;28;20202;-64
2023/08/06 10:54:59;;;;;;;9.52;8.23;;;;;;;33.04;100.00;97897.25;5137784;28;20505;-63
2023/08/06 10:57:26;;;;;;;9.27;8.38;;;;;;;32.58;100.00;97871.88;5138170;28;20055;-64
2023/08/06 10:59:52;;;;;;;12.90;7.90;;;;;;;32.43;100.00;97868.09;5137707;28;20058;-63
2023/08/06 11:02:18;;;;;;;8.93;7.43;;;;;;;32.49;100.00;97858.16;5138069;28;20085;-64
2023/08/06 11:04:44;;;;;;;12.65;8.10;;;;;;;32.23;100.00;97864.56;5137649;28;20313;-63
2023/08/06 11:07:10;;;;;;;12.70;8.20;;;;;;;32.06;100.00;97852.78;5137961;27;20401;-61
2023/08/06 11:09:37;;;;;;;12.15;7.93;;;;;;;31.65;100.00;97871.00;5137536;28;20047;-60
2023/08/06 11:12:06;;;;;;;11.30;7.85;;;;;;;31.27;100.00;97856.16;5137969;28;20043;-64
2023/08/06 11:14:32;;;;;;;10.23;7.95;;;;;;;31.20;100.00;97837.72;5137721;28;20146;-64
2023/08/06 11:16:58;;;;;;;12.38;7.88;;;;;;;31.04;100.00;97790.63;5137630;28;20158;-63